createdAt,value
2023-01-22T00:00:19.823Z,-28.1
2023-01-22T00:02:20.692Z,-28.3
2023-01-22T00:04:22.339Z,-28.3
2023-01-22T00:10:27.210Z,-28
2023-01-22T00:12:28.474Z,-28.4
2023-01-22T00:14:29.596Z,-28.5
2023-01-22T00:16:30.694Z,-28.4
2023-01-22T00:18:31.974Z,-28.4
2023-01-22T00:20:33.930Z,-28.2
2023-01-22T00:22:35.977Z,-28.3
2023-01-22T00:24:38.014Z,-28.6
2023-01-22T00:26:39.092Z,-28.2
2023-01-22T00:28:40.211Z,-28.2
2023-01-22T00:30:41.648Z,-27.9
2023-01-22T00:32:43.514Z,-28.2
2023-01-22T00:36:46.381Z,-28.6
2023-01-22T00:40:49.480Z,-28.3
2023-01-22T00:42:50.636Z,-28.3
2023-01-22T00:44:51.780Z,-28.4
2023-01-22T00:46:53.631Z,-28.1
2023-01-22T00:50:57.049Z,-28.5
2023-01-22T00:52:58.170Z,-28.3
2023-01-22T00:54:59.577Z,-28.2
2023-01-22T00:57:00.776Z,-28.2
2023-01-22T00:59:02.121Z,-28.3
2023-01-22T01:01:03.351Z,-28.4
2023-01-22T01:03:04.801Z,-28.4
2023-01-22T01:05:06.599Z,-28.3
2023-01-22T01:07:08.239Z,-28.4
2023-01-22T01:09:10.205Z,-28.3
2023-01-22T01:11:12.018Z,-28.2
2023-01-22T01:13:13.118Z,-28.5
2023-01-22T01:15:14.725Z,-28.2
2023-01-22T01:17:15.999Z,-28.2
2023-01-22T01:19:17.733Z,-28.2
2023-01-22T01:21:19.492Z,-28.3
2023-01-22T01:23:21.431Z,-28.4
2023-01-22T01:25:22.943Z,-28.3
2023-01-22T01:27:24.729Z,-28.4
2023-01-22T01:29:25.834Z,-28.4
2023-01-22T01:35:31.234Z,-28.3
2023-01-22T01:37:33.004Z,-28.3
2023-01-22T01:39:34.297Z,-28.3
2023-01-22T01:41:35.417Z,-28.5
2023-01-22T01:43:36.802Z,-28.3
2023-01-22T01:45:38.848Z,-28.2
2023-01-22T01:47:40.182Z,-28.3
2023-01-22T01:49:42.092Z,-28
2023-01-22T01:51:43.422Z,-28.5
2023-01-22T01:53:44.784Z,-28.4
2023-01-22T01:55:46.218Z,-28.4
2023-01-22T01:57:47.857Z,-28.2
2023-01-22T01:59:49.739Z,-28.3
2023-01-22T02:01:51.553Z,-28.5
2023-01-22T02:03:53.350Z,-28
2023-01-22T02:05:54.631Z,-28.1
2023-01-22T02:07:56.184Z,-28.1
2023-01-22T02:09:57.969Z,-28.3
2023-01-22T02:11:59.032Z,-28.6
2023-01-22T02:14:00.368Z,-28.2
2023-01-22T02:16:01.616Z,-28.5
2023-01-22T02:18:03.474Z,-28.3
2023-01-22T02:20:05.243Z,-28.4
2023-01-22T02:22:06.549Z,-28.5
2023-01-22T02:24:08.505Z,-28
2023-01-22T02:26:09.936Z,-28.5
2023-01-22T02:28:11.918Z,-28.2
2023-01-22T02:30:13.819Z,-28.4
2023-01-22T02:32:14.948Z,-28.4
2023-01-22T02:34:16.057Z,-28.4
2023-01-22T02:36:17.419Z,-28.3
2023-01-22T02:38:18.911Z,-28.3
2023-01-22T02:40:20.366Z,-28.5
2023-01-22T02:42:21.385Z,-28.4
2023-01-22T02:44:22.851Z,-28.3
2023-01-22T02:46:24.262Z,-28.2
2023-01-22T02:48:25.526Z,-28.6
2023-01-22T02:50:26.787Z,-28.4
2023-01-22T02:54:29.971Z,-28.4
2023-01-22T02:56:31.529Z,-28.4
2023-01-22T02:58:33.102Z,-28.6
2023-01-22T03:00:34.707Z,-28.5
2023-01-22T03:02:36.400Z,-28.3
2023-01-22T03:04:38.056Z,-28.2
2023-01-22T03:06:39.194Z,-28.4
2023-01-22T03:08:40.826Z,-28.5
2023-01-22T03:10:42.299Z,-28.2
2023-01-22T03:13:28.133Z,-28.5
2023-01-22T03:15:29.750Z,-28
2023-01-22T03:17:31.094Z,-28.3
2023-01-22T03:19:32.544Z,-28.1
2023-01-22T03:21:34.375Z,-28.3
2023-01-22T03:23:35.986Z,-28.5
2023-01-22T03:25:37.322Z,-28.4
2023-01-22T03:27:38.856Z,-28.4
2023-01-22T03:31:41.985Z,-28.4
2023-01-22T03:33:43.938Z,-28.4
2023-01-22T03:35:45.753Z,-28.5
2023-01-22T03:37:47.245Z,-28.2
2023-01-22T03:39:49.205Z,-28.7
2023-01-22T03:41:51.104Z,-28.5
2023-01-22T03:43:52.428Z,-28.6
2023-01-22T03:45:53.883Z,-28.5
2023-01-22T03:47:55.535Z,-28.5
2023-01-22T03:53:59.735Z,-28.2
2023-01-22T03:56:01.550Z,-28.3
2023-01-22T03:58:03.248Z,-28.2
2023-01-22T04:00:05.203Z,-28.3
2023-01-22T04:02:06.743Z,-28.5
2023-01-22T04:04:08.664Z,-28.3
2023-01-22T04:08:11.762Z,-28.4
2023-01-22T04:10:13.344Z,-28.3
2023-01-22T04:14:16.802Z,-26.5
2023-01-22T04:18:20.643Z,-26.5
2023-01-22T04:20:21.896Z,-26.5
2023-01-22T04:24:25.000Z,-28.2
2023-01-22T04:26:26.171Z,-28.3
2023-01-22T04:28:28.003Z,-28.3
2023-01-22T04:30:29.258Z,-28.4
2023-01-22T04:34:31.604Z,-28.3
2023-01-22T04:36:32.819Z,-28.4
2023-01-22T04:38:34.348Z,-28.4
2023-01-22T04:40:35.519Z,-28.4
2023-01-22T04:44:39.478Z,-28.3
2023-01-22T04:46:40.852Z,-28.4
2023-01-22T04:50:45.645Z,-28.4
2023-01-22T04:52:46.201Z,-28.5
2023-01-22T04:54:47.845Z,-28.3
2023-01-22T04:56:49.866Z,-28.5
2023-01-22T05:00:53.017Z,-28.3
2023-01-22T05:02:54.581Z,-28.2
2023-01-22T05:04:55.781Z,-28
2023-01-22T05:06:56.881Z,-28.2
2023-01-22T05:08:58.677Z,-28.4
2023-01-22T05:11:00.407Z,-28.3
2023-01-22T05:13:02.148Z,-28.3
2023-01-22T05:17:05.479Z,-28.1
2023-01-22T05:19:06.960Z,-28.3
2023-01-22T05:21:08.251Z,-28.4
2023-01-22T05:23:10.137Z,-28.4
2023-01-22T05:27:13.598Z,-28.4
2023-01-22T05:29:15.524Z,-28.4
2023-01-22T05:33:18.176Z,-28.2
2023-01-22T05:35:19.360Z,-28.4
2023-01-22T05:37:20.734Z,-28.2
2023-01-22T05:39:24.032Z,-28.2
2023-01-22T05:45:26.851Z,-28
2023-01-22T05:47:28.158Z,-28.3
2023-01-22T05:49:29.514Z,-28
2023-01-22T05:51:32.394Z,-28.3
2023-01-22T05:53:32.528Z,-28.2
2023-01-22T05:55:34.349Z,-28.5
2023-01-22T05:57:36.411Z,-28.3
2023-01-22T05:59:37.701Z,-28.5
2023-01-22T06:01:39.330Z,-28.4
2023-01-22T06:03:41.282Z,-28.2
2023-01-22T06:05:42.358Z,-28.3
2023-01-22T06:07:43.871Z,-28.5
2023-01-22T06:09:45.885Z,-28.2
2023-01-22T06:11:47.511Z,-28.4
2023-01-22T06:13:49.147Z,-28.7
2023-01-22T06:15:50.571Z,-28.5
2023-01-22T06:17:51.741Z,-28.4
2023-01-22T06:19:53.347Z,-28.2
2023-01-22T06:21:55.012Z,-28.2
2023-01-22T06:23:56.850Z,-28.5
2023-01-22T06:28:00.458Z,-28.2
2023-01-22T06:32:03.449Z,-28.3
2023-01-22T06:34:05.053Z,-28.3
2023-01-22T06:36:06.643Z,-28.3
2023-01-22T06:38:08.487Z,-28.4
2023-01-22T06:42:10.672Z,-28.5
2023-01-22T06:44:11.969Z,-28.3
2023-01-22T06:46:13.100Z,-28.4
2023-01-22T06:48:14.840Z,-28.6
2023-01-22T06:50:16.324Z,-28.4
2023-01-22T06:52:25.529Z,-28.2
2023-01-22T06:54:18.724Z,-28.4
2023-01-22T06:56:20.523Z,-28.5
2023-01-22T06:58:22.228Z,-27.9
2023-01-22T07:00:23.680Z,-28.2
2023-01-22T07:02:25.579Z,-28.3
2023-01-22T07:04:36.336Z,-28.4
2023-01-22T07:06:28.463Z,-28.4
2023-01-22T07:08:30.229Z,-28
2023-01-22T07:10:32.134Z,-28.3
2023-01-22T07:12:33.330Z,-28.3
2023-01-22T07:14:37.274Z,-28.5
2023-01-22T07:16:36.502Z,-28.4
2023-01-22T07:18:37.882Z,-28.4
2023-01-22T07:20:39.176Z,-28.3
2023-01-22T07:26:44.933Z,-28.6
2023-01-22T07:28:46.381Z,-28.4
2023-01-22T07:30:47.560Z,-28.3
2023-01-22T07:32:49.358Z,-28.7
2023-01-22T07:34:51.121Z,-28.3
2023-01-22T07:36:52.634Z,-28.4
2023-01-22T07:38:54.511Z,-28.3
2023-01-22T07:40:56.055Z,-28.5
2023-01-22T07:42:57.768Z,-28.4
2023-01-22T07:44:59.060Z,-28.4
2023-01-22T07:47:00.190Z,-28.4
2023-01-22T07:51:03.326Z,-28.3
2023-01-22T07:53:04.538Z,-28.4
2023-01-22T07:55:06.348Z,-28.2
2023-01-22T07:57:08.347Z,-28.4
2023-01-22T07:59:10.030Z,-28.3
2023-01-22T08:01:11.492Z,-28.6
2023-01-22T08:03:12.994Z,-28.4
2023-01-22T08:05:14.098Z,-28.4
2023-01-22T08:07:15.272Z,-28.3
2023-01-22T08:09:16.857Z,-28
2023-01-22T08:11:18.049Z,-28.6
2023-01-22T08:13:19.318Z,-28.4
2023-01-22T08:15:20.399Z,-28.3
2023-01-22T08:17:21.888Z,-28.4
2023-01-22T08:19:23.193Z,-28.5
2023-01-22T08:21:24.863Z,-28.3
2023-01-22T08:23:26.343Z,-28.4
2023-01-22T08:25:27.733Z,-28.3
2023-01-22T08:27:29.713Z,-28.2
2023-01-22T08:29:30.962Z,-28.4
2023-01-22T08:31:32.132Z,-28.3
2023-01-22T08:33:34.016Z,-28.1
2023-01-22T08:35:35.731Z,-28.5
2023-01-22T08:37:37.757Z,-28.4
2023-01-22T08:39:39.703Z,-28.1
2023-01-22T08:41:41.485Z,-28.5
2023-01-22T08:45:44.707Z,-28.2
2023-01-22T08:47:46.518Z,-28
2023-01-22T08:49:47.945Z,-28.6
2023-01-22T08:51:49.412Z,-28.3
2023-01-22T08:53:51.092Z,-28.3
2023-01-22T08:55:52.375Z,-28.3
2023-01-22T08:57:54.083Z,-28.4
2023-01-22T09:00:00.940Z,-28.4
2023-01-22T09:01:56.247Z,-28.5
2023-01-22T09:08:01.096Z,-28.5
2023-01-22T09:10:02.790Z,-28.4
2023-01-22T09:12:04.290Z,-28.3
2023-01-22T09:14:06.318Z,-28.5
2023-01-22T09:16:07.998Z,-28.2
2023-01-22T09:18:09.958Z,-28.3
2023-01-22T09:22:13.677Z,-28.3
2023-01-22T09:24:14.873Z,-28.3
2023-01-22T09:28:17.613Z,-28.1
2023-01-22T09:30:19.527Z,-28.3
2023-01-22T09:32:20.626Z,-28.3
2023-01-22T09:34:22.462Z,-28.2
2023-01-22T09:38:25.182Z,-28.6
2023-01-22T09:40:26.396Z,-28.4
2023-01-22T09:42:27.734Z,-28.4
2023-01-22T09:44:28.963Z,-24.3
2023-01-22T09:48:32.123Z,-21.4
2023-01-22T09:50:33.728Z,-20
2023-01-22T09:52:35.173Z,-15.7
2023-01-22T09:54:36.288Z,-13.4
2023-01-22T09:56:37.742Z,-12.5
2023-01-22T09:58:38.968Z,-13
2023-01-22T10:01:24.221Z,-8.6
2023-01-22T10:03:25.394Z,-6.8
2023-01-22T10:05:26.514Z,-6.1
2023-01-22T10:07:28.190Z,-6.1
2023-01-22T10:11:31.249Z,-7
2023-01-22T10:15:33.510Z,-6.9
2023-01-22T10:17:34.503Z,-7.4
2023-01-22T10:19:35.873Z,-7.2
2023-01-22T10:21:37.723Z,-5.2
2023-01-22T10:25:41.437Z,-1.5
2023-01-22T10:27:42.648Z,1.2
2023-01-22T10:29:44.500Z,4.3
2023-01-22T10:31:45.707Z,0.9
2023-01-22T10:33:46.603Z,2.7
2023-01-22T10:35:47.987Z,2.2
2023-01-22T10:37:49.980Z,2.3
2023-01-22T10:39:51.206Z,1.8
2023-01-22T10:41:53.007Z,-0.8
2023-01-22T10:43:54.269Z,-2.6
2023-01-22T10:45:55.712Z,-4
2023-01-22T10:47:57.369Z,-2.8
2023-01-22T10:49:58.860Z,-2.9
2023-01-22T10:52:00.804Z,-2.3
2023-01-22T10:54:02.459Z,-1.7
2023-01-22T10:58:06.203Z,1.8
2023-01-22T11:00:07.770Z,4.5
2023-01-22T11:02:09.195Z,11
2023-01-22T11:04:10.691Z,17.1
2023-01-22T11:10:15.438Z,17.6
2023-01-22T11:12:17.233Z,18.4
2023-01-22T11:14:19.146Z,19.9
2023-01-22T11:16:20.211Z,19.29
2023-01-22T11:18:21.657Z,20.8
2023-01-22T11:20:23.356Z,9.6
2023-01-22T11:22:24.707Z,9.5
2023-01-22T11:24:26.273Z,13
2023-01-22T11:26:27.265Z,14.2
2023-01-22T11:28:28.988Z,14.4
2023-01-22T11:30:30.134Z,12.7
2023-01-22T11:32:31.890Z,10.4
2023-01-22T11:34:32.903Z,9
2023-01-22T11:36:34.624Z,11.1
2023-01-22T11:38:35.726Z,10.1
2023-01-22T11:40:37.412Z,6.2
2023-01-22T11:42:39.202Z,7.2
2023-01-22T11:44:40.618Z,5.3
2023-01-22T11:46:42.442Z,5.2
2023-01-22T11:48:44.342Z,4.8
2023-01-22T11:52:47.466Z,3.9
2023-01-22T11:54:49.273Z,4.4
2023-01-22T11:56:50.787Z,4.5
2023-01-22T11:58:52.215Z,3.7
2023-01-22T12:00:53.531Z,3.4
2023-01-22T12:02:55.288Z,3
2023-01-22T12:04:56.768Z,5
2023-01-22T12:06:57.763Z,4.3
2023-01-22T12:08:59.034Z,10.1
2023-01-22T12:11:00.745Z,5.6
2023-01-22T12:13:02.377Z,4.1
2023-01-22T12:15:04.117Z,3.6
2023-01-22T12:17:05.734Z,3.7
2023-01-22T12:19:07.149Z,9.7
2023-01-22T12:21:08.537Z,3.5
2023-01-22T12:23:10.338Z,10.6
2023-01-22T12:25:11.520Z,3.9
2023-01-22T12:29:13.796Z,3.7
2023-01-22T12:31:15.662Z,3.8
2023-01-22T12:33:16.775Z,2.6
2023-01-22T12:35:17.963Z,1.9
2023-01-22T12:39:20.624Z,2.5
2023-01-22T12:41:21.781Z,3.3
2023-01-22T12:43:22.941Z,3.5
2023-01-22T12:45:24.216Z,2.9
2023-01-22T12:49:26.725Z,3.9
2023-01-22T12:51:28.323Z,4.6
2023-01-22T12:53:30.201Z,4.5
2023-01-22T12:55:31.896Z,4.3
2023-01-22T12:59:35.287Z,3.6
2023-01-22T13:01:36.655Z,4
2023-01-22T13:05:39.745Z,4.4
2023-01-22T13:07:41.385Z,4.69
2023-01-22T13:09:42.599Z,2.2
2023-01-22T13:11:43.826Z,2.2
2023-01-22T13:17:53.053Z,2.7
2023-01-22T13:19:49.881Z,1.7
2023-01-22T13:21:51.602Z,-0.8
2023-01-22T13:23:53.527Z,-0.4
2023-01-22T13:25:54.571Z,-1.8
2023-01-22T13:27:56.152Z,-0.7
2023-01-22T13:31:59.880Z,-5.4
2023-01-22T13:34:00.908Z,-5.2
2023-01-22T13:36:02.700Z,-5.7
2023-01-22T13:38:04.115Z,-5.6
2023-01-22T13:42:07.427Z,-6.8
2023-01-22T13:44:09.033Z,-6.3
2023-01-22T13:48:12.220Z,-7.2
2023-01-22T13:50:13.391Z,-8.5
2023-01-22T13:52:14.843Z,-6.2
2023-01-22T13:54:16.075Z,-5.1
2023-01-22T13:56:17.316Z,-4.69
2023-01-22T14:00:19.838Z,-4.9
2023-01-22T14:04:22.814Z,-4.69
2023-01-22T14:06:24.625Z,-5.7
2023-01-22T14:08:26.226Z,-4.6
2023-01-22T14:10:27.891Z,-5.9
2023-01-22T14:16:31.843Z,-9.1
2023-01-22T14:18:33.573Z,-11.1
2023-01-22T14:20:34.623Z,-12.7
2023-01-22T14:22:36.618Z,-14.1
2023-01-22T14:24:38.176Z,-15.8
2023-01-22T14:26:39.436Z,-15.6
2023-01-22T14:28:41.389Z,-16.29
2023-01-22T14:30:42.568Z,-12.6
2023-01-22T14:32:43.875Z,-10.4
2023-01-22T14:34:45.160Z,-10.9
2023-01-22T14:36:46.472Z,-11
2023-01-22T14:38:48.303Z,-11.4
2023-01-22T14:40:50.202Z,-11.1
2023-01-22T14:42:51.297Z,-13.5
2023-01-22T14:44:52.500Z,-15.9
2023-01-22T14:46:54.503Z,-17.6
2023-01-22T14:48:56.297Z,-21.1
2023-01-22T14:50:57.767Z,-24.2
2023-01-22T14:52:59.485Z,-28.2
2023-01-22T14:55:00.518Z,-28.3
2023-01-22T14:59:02.907Z,-28.2
2023-01-22T15:01:04.221Z,-28.5
2023-01-22T15:03:05.855Z,-28.4
2023-01-22T15:05:07.641Z,-28.3
2023-01-22T15:07:08.898Z,-28.4
2023-01-22T15:09:10.437Z,-28.5
2023-01-22T15:15:15.814Z,-28.6
2023-01-22T15:17:17.421Z,-28.3
2023-01-22T15:19:18.690Z,-28.3
2023-01-22T15:21:20.125Z,-28.4
2023-01-22T15:23:21.236Z,-28.2
2023-01-22T15:25:23.054Z,-28.4
2023-01-22T15:27:24.807Z,-28.4
2023-01-22T15:29:26.896Z,-28.3
2023-01-22T15:31:35.910Z,-28.4
2023-01-22T15:35:30.874Z,-28.5
2023-01-22T15:37:32.378Z,-28.5
2023-01-22T15:39:33.695Z,-28.3
2023-01-22T15:41:35.672Z,-28.4
2023-01-22T15:45:38.739Z,-28.3
2023-01-22T15:47:40.527Z,-28
2023-01-22T15:49:42.123Z,-28.3
2023-01-22T15:51:43.966Z,-28.4
2023-01-22T15:57:48.842Z,-28.6
2023-01-22T15:59:50.803Z,-28.3
2023-01-22T16:01:52.659Z,-28.5
2023-01-22T16:03:54.622Z,-28.2
2023-01-22T16:05:56.630Z,-28.4
2023-01-22T16:07:58.077Z,-28.4
2023-01-22T16:09:59.791Z,-28.5
2023-01-22T16:12:01.182Z,-28.2
2023-01-22T16:14:02.575Z,-28.4
2023-01-22T16:18:05.867Z,-28.4
2023-01-22T16:20:07.580Z,-28.4
2023-01-22T16:22:08.850Z,-28.2
2023-01-22T16:24:10.858Z,-28.3
2023-01-22T16:26:12.675Z,-28.4
2023-01-22T16:28:13.810Z,-28.2
2023-01-22T16:30:15.893Z,-28.5
2023-01-22T16:32:17.423Z,-28.2
2023-01-22T16:34:18.947Z,-28.4
2023-01-22T16:40:23.406Z,-28.3
2023-01-22T16:42:24.724Z,-28.4
2023-01-22T16:44:26.395Z,-28.3
2023-01-22T16:45:10.204Z,-28.5
2023-01-22T16:49:13.733Z,-28.4
2023-01-22T16:51:15.546Z,-28.5
2023-01-22T16:53:16.640Z,-28.3
2023-01-22T16:55:18.680Z,-28.5
2023-01-22T16:59:21.748Z,-28.2
2023-01-22T17:01:23.180Z,-28.3
2023-01-22T17:03:24.223Z,-28.4
2023-01-22T17:05:25.566Z,-28.3
2023-01-22T17:07:33.477Z,-28.3
2023-01-22T17:11:29.457Z,-28.4
2023-01-22T17:13:30.577Z,-28.2
2023-01-22T17:15:32.275Z,-28.5
2023-01-22T17:17:33.833Z,-28.3
2023-01-22T17:19:35.307Z,-28.4
2023-01-22T17:21:37.361Z,-28.1
2023-01-22T17:23:38.658Z,-28.6
2023-01-22T17:25:40.565Z,-28.2
2023-01-22T17:27:41.889Z,-28.3
2023-01-22T17:29:43.400Z,-28.4
2023-01-22T17:31:44.536Z,-28.2
2023-01-22T17:33:46.248Z,-28.2
2023-01-22T17:35:47.568Z,-28.1
2023-01-22T17:37:48.677Z,-28.4
2023-01-22T17:39:50.049Z,-28.4
2023-01-22T17:41:51.392Z,-28.3
2023-01-22T17:43:52.997Z,-28.6
2023-01-22T17:47:56.004Z,-28.3
2023-01-22T17:49:57.822Z,-28.2
2023-01-22T17:51:59.057Z,-28.4
2023-01-22T17:54:00.314Z,-28.4
2023-01-22T17:56:02.124Z,-28.5
2023-01-22T17:58:04.035Z,-28.5
2023-01-22T18:00:05.771Z,-28.6
2023-01-22T18:02:07.905Z,-28.5
2023-01-22T18:04:08.864Z,-28.3
2023-01-22T18:06:10.667Z,-28.4
2023-01-22T18:08:12.515Z,-28.3
2023-01-22T18:10:13.724Z,-28.2
2023-01-22T18:12:15.694Z,-28.3
2023-01-22T18:16:18.831Z,-28.2
2023-01-22T18:20:21.861Z,-28.5
2023-01-22T18:22:23.169Z,-28.4
2023-01-22T18:24:24.803Z,-28.2
2023-01-22T18:26:26.130Z,-28.4
2023-01-22T18:30:28.817Z,-28.4
2023-01-22T18:32:30.556Z,-28.5
2023-01-22T18:34:32.103Z,-28.4
2023-01-22T18:36:33.846Z,-27.9
2023-01-22T18:38:35.353Z,-28.5
2023-01-22T18:40:37.172Z,-28.6
2023-01-22T18:42:38.975Z,-28.5
2023-01-22T18:44:40.991Z,-28.4
2023-01-22T18:46:42.817Z,-28.2
2023-01-22T18:48:44.213Z,-28.4
2023-01-22T18:50:46.140Z,-28.3
2023-01-22T18:52:47.367Z,-28.5
2023-01-22T18:54:49.324Z,-28.5
2023-01-22T18:58:52.338Z,-28.4
2023-01-22T19:02:56.064Z,-28.2
2023-01-22T19:04:57.914Z,-28.3
2023-01-22T19:06:59.329Z,-28.4
2023-01-22T19:09:00.879Z,-28.4
2023-01-22T19:11:02.236Z,-28.4
2023-01-22T19:13:04.182Z,-28.5
2023-01-22T19:15:05.502Z,-28.4
2023-01-22T19:17:07.405Z,-28.4
2023-01-22T19:19:08.506Z,-28.5
2023-01-22T19:21:09.681Z,-28.4
2023-01-22T19:23:11.079Z,-28.5
2023-01-22T19:25:12.258Z,-28.4
2023-01-22T19:27:13.826Z,-28.4
2023-01-22T19:29:15.296Z,-28.6
2023-01-22T19:31:16.660Z,-28.4
2023-01-22T19:33:17.863Z,-28.3
2023-01-22T19:35:19.414Z,-28.5
2023-01-22T19:37:20.772Z,-28.3
2023-01-22T19:39:22.413Z,-28.6
2023-01-22T19:41:23.741Z,-28.6
2023-01-22T19:43:24.753Z,-28.5
2023-01-22T19:45:26.403Z,-28.1
2023-01-22T19:47:27.765Z,-28.4
2023-01-22T19:49:29.339Z,-28.6
2023-01-22T19:51:30.889Z,-28.4
2023-01-22T19:53:32.169Z,-28.3
2023-01-22T19:57:35.257Z,-28.4
2023-01-22T19:59:36.926Z,-28.3
2023-01-22T20:01:38.315Z,-28.2
2023-01-22T20:03:40.070Z,-28.4
2023-01-22T20:05:41.245Z,-28.3
2023-01-22T20:07:42.413Z,-28.5
2023-01-22T20:11:45.294Z,-28.6
2023-01-22T20:13:46.660Z,-28.3
2023-01-22T20:15:48.382Z,-28.4
2023-01-22T20:17:49.698Z,-28.3
2023-01-22T20:19:51.114Z,-28.3
2023-01-22T20:21:52.172Z,-28.2
2023-01-22T20:23:53.963Z,-28.6
2023-01-22T20:25:55.338Z,-28.3
2023-01-22T20:27:56.471Z,-28.4
2023-01-22T20:29:57.767Z,-28.3
2023-01-22T20:34:01.075Z,-28.3
2023-01-22T20:38:03.873Z,-28.3
2023-01-22T20:40:05.559Z,-28.4
2023-01-22T20:44:09.296Z,-28.5
2023-01-22T20:46:11.393Z,-28.2
2023-01-22T20:48:13.218Z,-28.3
2023-01-22T20:50:15.130Z,-28.4
2023-01-22T20:56:19.213Z,-28.2
2023-01-22T20:58:20.654Z,-28.3
2023-01-22T21:00:22.553Z,-28
2023-01-22T21:02:24.523Z,-28.3
2023-01-22T21:04:25.697Z,-28.2
2023-01-22T21:06:27.649Z,-28.1
2023-01-22T21:08:29.451Z,-28.5
2023-01-22T21:10:31.361Z,-28.4
2023-01-22T21:12:33.025Z,-28.3
2023-01-22T21:16:35.867Z,-28.5
2023-01-22T21:18:37.825Z,-28.2
2023-01-22T21:20:39.614Z,-28.4
2023-01-22T21:22:41.425Z,-28.2
2023-01-22T21:24:42.786Z,-28.3
2023-01-22T21:26:44.307Z,-28.2
2023-01-22T21:28:45.769Z,-28.4
2023-01-22T21:30:47.198Z,-28.2
2023-01-22T21:32:56.441Z,-28.4
2023-01-22T21:38:52.830Z,-28.5
2023-01-22T21:40:54.385Z,-28.2
2023-01-22T21:42:55.721Z,-28.2
2023-01-22T21:46:58.804Z,-28.2
2023-01-22T21:49:00.146Z,-28.6
2023-01-22T21:53:02.704Z,-28.4
2023-01-22T21:55:04.138Z,-28.6
2023-01-22T21:57:06.012Z,-28.3
2023-01-22T21:59:07.105Z,-28.4
2023-01-22T22:05:12.022Z,-28.2
2023-01-22T22:07:13.270Z,-28.4
2023-01-22T22:09:15.170Z,-28.4
2023-01-22T22:11:16.770Z,-28.3
2023-01-22T22:13:18.083Z,-28.2
2023-01-22T22:15:19.765Z,-28.5
2023-01-22T22:17:21.119Z,-28.2
2023-01-22T22:19:23.147Z,-28.2
2023-01-22T22:21:24.969Z,-28.3
2023-01-22T22:23:26.487Z,-28.3
2023-01-22T22:25:28.042Z,-28.2
2023-01-22T22:27:29.583Z,-28.5
2023-01-22T22:29:31.533Z,-28.2
2023-01-22T22:31:33.481Z,-28.3
2023-01-22T22:33:34.924Z,-28.4
2023-01-22T22:35:35.951Z,-28.2
2023-01-22T22:37:37.915Z,-28.2
2023-01-22T22:39:39.240Z,-28.4
2023-01-22T22:41:40.851Z,-28.3
2023-01-22T22:43:42.033Z,-28.4
2023-01-22T22:47:44.950Z,-28.4
2023-01-22T22:51:47.880Z,-28.3
2023-01-22T22:53:49.125Z,-28.5
2023-01-22T22:55:51.073Z,-28.8
2023-01-22T22:57:52.698Z,-28.5
2023-01-22T22:59:54.732Z,-28.2
2023-01-22T23:01:55.906Z,-28.4
2023-01-22T23:03:57.699Z,-28.1
2023-01-22T23:05:59.107Z,-28.6
2023-01-22T23:08:00.841Z,-28.5
2023-01-22T23:10:02.730Z,-28
2023-01-22T23:12:04.578Z,-28.5
2023-01-22T23:14:05.826Z,-28.4
2023-01-22T23:16:07.270Z,-28.4
2023-01-22T23:18:09.308Z,-28.3
2023-01-22T23:20:11.392Z,-28.5
2023-01-22T23:22:12.632Z,-28.2
2023-01-22T23:24:14.128Z,-28.3
2023-01-22T23:26:16.033Z,-28.2
2023-01-22T23:30:19.010Z,-28.3
2023-01-22T23:31:02.752Z,-28.5
2023-01-22T23:35:06.022Z,-28.4
2023-01-22T23:39:09.470Z,-28.2
2023-01-22T23:41:11.059Z,-28.4
2023-01-22T23:43:12.973Z,-28.3
2023-01-22T23:45:14.348Z,-28.2
2023-01-22T23:47:16.136Z,-28.5
2023-01-22T23:49:17.628Z,-28.5
2023-01-22T23:51:18.963Z,-28.4
2023-01-22T23:53:20.962Z,-28.2
2023-01-22T23:55:22.922Z,-28.4
2023-01-22T23:57:24.126Z,-28.5
2023-01-22T23:59:25.779Z,-28.5
